Time;durP1;ratioP1;P1;durP2;ratioP2;P2;SDS_P1;SDS_P2;PMS_P1;PMS_P2;Temp;Humidity;BMP_temperature;BMP_pressure;BME280_temperature;BME280_humidity;BME280_pressure;Samples;Min_cycle;Max_cycle;Signal;HPM_P1;HPM_P2
2023/04/04 00:01:01;;;;;;;25.45;23.50;;;3.30;1.00;;;;;;4973493;28;20054;-79
2023/04/04 00:03:27;;;;;;;41.45;38.63;;;5.00;1.00;;;;;;4990445;28;20090;-79
2023/04/04 00:05:52;;;;;;;30.00;28.02;;;4.50;1.00;;;;;;4972227;28;20085;-79
2023/04/04 00:08:18;;;;;;;30.65;28.60;;;3.30;1.00;;;;;;4990157;28;20490;-79
2023/04/04 00:10:44;;;;;;;26.00;24.15;;;3.20;1.00;;;;;;4989478;28;20048;-79
2023/04/04 00:13:10;;;;;;;25.83;24.02;;;3.20;1.00;;;;;;4990063;28;20069;-79
2023/04/04 00:15:35;;;;;;;27.52;25.50;;;3.20;16.40;;;;;;4989851;28;20564;-79
2023/04/04 00:18:02;;;;;;;28.60;26.45;;;3.00;50.80;;;;;;4990062;28;20046;-79
2023/04/04 00:20:31;;;;;;;30.70;28.45;;;2.90;99.90;;;;;;4972161;28;20116;-79
2023/04/04 00:22:57;;;;;;;36.92;34.50;;;3.10;99.90;;;;;;4989940;28;20042;-79
2023/04/04 00:25:23;;;;;;;33.42;31.20;;;3.00;99.90;;;;;;4989180;28;20438;-79
2023/04/04 00:27:49;;;;;;;27.45;25.45;;;3.00;99.90;;;;;;4990082;28;20112;-79
2023/04/04 00:30:15;;;;;;;35.97;33.22;;;3.10;99.90;;;;;;4983640;28;20030;-79
2023/04/04 00:32:40;;;;;;;31.40;29.13;;;3.40;99.90;;;;;;4973565;28;20571;-79
2023/04/04 00:35:07;;;;;;;28.38;26.38;;;3.70;99.90;;;;;;4988959;28;20069;-79
2023/04/04 00:37:33;;;;;;;30.42;27.92;;;2.90;99.90;;;;;;4989224;28;20054;-79
2023/04/04 00:39:58;;;;;;;35.45;33.08;;;3.00;1.00;;;;;;4988952;28;20108;-79
2023/04/04 00:42:24;;;;;;;30.75;28.67;;;3.10;1.00;;;;;;4989651;28;20410;-79
2023/04/04 00:44:53;;;;;;;50.05;46.45;;;2.70;1.00;;;;;;4973214;28;20042;-79
2023/04/04 00:47:23;;;;;;;26.17;24.15;;;2.60;1.00;;;;;;4989257;28;20126;-79
2023/04/04 00:49:49;;;;;;;27.75;25.80;;;2.50;91.30;;;;;;4988594;28;20050;-79
2023/04/04 00:52:15;;;;;;;35.97;33.53;;;2.40;99.90;;;;;;4987979;28;20096;-79
2023/04/04 00:54:40;;;;;;;30.48;28.35;;;2.40;99.90;;;;;;4972979;28;20129;-79
2023/04/04 00:57:07;;;;;;;25.33;23.42;;;2.50;99.90;;;;;;4989600;28;20050;-79
2023/04/04 00:59:33;;;;;;;26.63;23.92;;;2.20;1.00;;;;;;4973216;28;20047;-79
2023/04/04 01:01:59;;;;;;;30.65;28.45;;;2.30;11.00;;;;;;4972479;28;20084;-79
2023/04/04 01:04:28;;;;;;;30.85;28.75;;;2.60;99.90;;;;;;4989208;28;20042;-79
2023/04/04 01:06:53;;;;;;;25.02;23.15;;;2.30;99.90;;;;;;4988047;28;20042;-79
2023/04/04 01:09:19;;;;;;;33.25;30.77;;;2.50;1.00;;;;;;4972314;28;20038;-79
2023/04/04 01:11:45;;;;;;;24.02;22.30;;;2.80;1.00;;;;;;4973469;28;20057;-79
2023/04/04 01:14:11;;;;;;;27.63;25.55;;;2.50;97.10;;;;;;4989299;28;20148;-79
2023/04/04 01:16:37;;;;;;;27.65;25.52;;;2.60;99.90;;;;;;4989078;28;20128;-79
2023/04/04 01:19:07;;;;;;;38.30;35.60;;;2.80;99.90;;;;;;4989572;28;20042;-79
2023/04/04 01:21:35;;;;;;;21.63;19.80;;;3.00;1.00;;;;;;4987840;28;20057;-79
2023/04/04 01:24:02;;;;;;;34.00;31.45;;;2.90;3.80;;;;;;4989349;28;20498;-80
2023/04/04 01:26:28;;;;;;;29.80;27.48;;;2.50;99.90;;;;;;4989311;28;20050;-79
2023/04/04 01:28:54;;;;;;;24.40;22.33;;;2.50;99.90;;;;;;4989204;28;20034;-79
2023/04/04 01:31:42;;;;;;;20.70;19.00;;;3.00;99.90;;;;;;4988813;28;20040;-79
2023/04/04 01:34:49;;;;;;;20.50;18.60;;;2.90;1.00;;;;;;4989129;28;20057;-79
2023/04/04 01:37:29;;;;;;;17.50;16.10;;;2.90;1.00;;;;;;4974726;28;20054;-79
2023/04/04 01:40:08;;;;;;;22.20;20.48;;;2.80;99.90;;;;;;4972561;28;20061;-79
2023/04/04 01:42:34;;;;;;;24.88;22.98;;;3.10;99.90;;;;;;4957002;28;20057;-79
2023/04/04 01:45:00;;;;;;;19.55;17.88;;;3.40;1.00;;;;;;4956611;28;20474;-79
2023/04/04 01:47:26;;;;;;;28.88;26.60;;;2.90;1.00;;;;;;4972950;28;20137;-79
2023/04/04 01:49:52;;;;;;;26.98;24.90;;;3.10;79.60;;;;;;4970165;28;20073;-79
2023/04/04 01:52:18;;;;;;;34.72;31.70;;;3.30;99.90;;;;;;4972338;28;20080;-79
2023/04/04 01:54:44;;;;;;;27.60;25.35;;;3.50;99.90;;;;;;4992217;28;20036;-79
2023/04/04 01:57:09;;;;;;;29.15;26.85;;;3.40;99.90;;;;;;4976266;28;20045;-79
2023/04/04 01:59:35;;;;;;;25.05;22.73;;;3.40;1.00;;;;;;4992118;28;20158;-79
2023/04/04 02:02:00;;;;;;;23.50;21.48;;;3.70;1.00;;;;;;4994054;28;20034;-79
2023/04/04 02:04:26;;;;;;;34.30;31.73;;;3.50;33.50;;;;;;4996043;28;20080;-79
2023/04/04 02:06:51;;;;;;;53.17;49.05;;;3.70;99.90;;;;;;4983621;28;20049;-79
2023/04/04 02:09:17;;;;;;;30.67;28.55;;;3.70;99.90;;;;;;4976354;28;20031;-79
2023/04/04 02:11:43;;;;;;;27.52;25.10;;;4.80;99.90;;;;;;4976050;28;20046;-79
2023/04/04 02:14:08;;;;;;;42.60;38.95;;;3.30;99.90;;;;;;4976094;28;20042;-79
2023/04/04 02:16:34;;;;;;;39.58;36.03;;;3.70;1.00;;;;;;4975850;28;20034;-79
2023/04/04 02:19:00;;;;;;;36.40;33.80;;;3.40;1.00;;;;;;4975759;28;20104;-79
2023/04/04 02:21:26;;;;;;;36.50;33.35;;;3.90;90.30;;;;;;4984233;28;20041;-79
2023/04/04 02:23:52;;;;;;;35.35;32.67;;;3.90;99.90;;;;;;4995213;28;20046;-79
2023/04/04 02:26:17;;;;;;;47.70;43.17;;;3.60;99.90;;;;;;4978909;28;20572;-79
2023/04/04 02:28:43;;;;;;;45.05;41.47;;;4.00;1.00;;;;;;4979237;28;20038;-79
2023/04/04 02:31:08;;;;;;;46.58;42.80;;;5.10;12.10;;;;;;4978656;28;20038;-80
2023/04/04 02:33:34;;;;;;;41.13;37.17;;;3.90;99.90;;;;;;4998370;28;20393;-79
2023/04/04 02:36:00;;;;;;;45.90;41.90;;;3.50;99.90;;;;;;4987670;28;20045;-79
2023/04/04 02:38:26;;;;;;;38.95;36.15;;;3.50;1.00;;;;;;4994666;28;20089;-79
2023/04/04 02:40:52;;;;;;;51.70;47.15;;;3.80;1.00;;;;;;4994824;28;20413;-79
2023/04/04 02:43:17;;;;;;;37.67;34.42;;;3.90;1.00;;;;;;4995310;28;20486;-79
2023/04/04 02:45:43;;;;;;;35.58;31.92;;;3.40;15.40;;;;;;4994639;28;20145;-79
2023/04/04 02:48:09;;;;;;;45.80;41.40;;;3.50;69.00;;;;;;4994983;28;20461;-80
2023/04/04 02:50:35;;;;;;;46.35;42.80;;;3.20;99.90;;;;;;4977016;28;20038;-79
2023/04/04 02:53:01;;;;;;;32.15;29.77;;;3.30;99.90;;;;;;4994978;28;20049;-79
2023/04/04 02:55:27;;;;;;;32.42;29.30;;;3.40;99.90;;;;;;4994827;28;20038;-79
2023/04/04 02:57:53;;;;;;;42.80;38.70;;;3.20;99.90;;;;;;4994736;28;20821;-79
2023/04/04 03:00:19;;;;;;;38.78;35.47;;;3.80;99.90;;;;;;4994598;28;20505;-79
2023/04/04 03:02:45;;;;;;;44.20;40.35;;;3.60;99.90;;;;;;4994654;28;20084;-79
2023/04/04 03:05:11;;;;;;;58.70;52.70;;;3.70;99.90;;;;;;4988097;28;20046;-80
2023/04/04 03:07:37;;;;;;;49.17;45.10;;;3.70;99.90;;;;;;4958204;28;20512;-79
2023/04/04 03:10:03;;;;;;;46.60;41.92;;;3.40;99.90;;;;;;4975217;28;20049;-80
2023/04/04 03:12:28;;;;;;;50.22;46.05;;;3.70;99.90;;;;;;4958824;28;20050;-79
2023/04/04 03:14:54;;;;;;;43.58;39.50;;;3.40;99.90;;;;;;4975032;28;20034;-79
2023/04/04 03:17:19;;;;;;;34.83;31.35;;;3.30;99.90;;;;;;4975065;28;20054;-80
2023/04/04 03:19:45;;;;;;;57.25;52.45;;;3.40;99.90;;;;;;4974954;28;20398;-80
2023/04/04 03:22:11;;;;;;;50.97;45.72;;;2.70;99.90;;;;;;4966724;28;20042;-80
2023/04/04 03:24:36;;;;;;;36.90;33.85;;;2.80;99.90;;;;;;4993812;28;20033;-79
2023/04/04 03:27:02;;;;;;;42.33;38.90;;;3.20;99.90;;;;;;4994409;28;20528;-79
2023/04/04 03:29:27;;;;;;;44.90;40.85;;;2.70;99.90;;;;;;4978099;28;20173;-79
2023/04/04 03:31:53;;;;;;;57.53;53.33;;;3.20;99.90;;;;;;4994361;28;20055;-79
2023/04/04 03:34:19;;;;;;;30.50;27.98;;;3.10;99.90;;;;;;4987170;28;20042;-79
2023/04/04 03:36:47;;;;;;;44.92;40.85;;;2.70;99.90;;;;;;5009168;28;20041;-79
2023/04/04 03:39:13;;;;;;;34.03;31.17;;;2.80;99.90;;;;;;5006451;28;20058;-79
2023/04/04 03:41:39;;;;;;;40.10;37.13;;;2.90;99.90;;;;;;4993802;28;20438;-79
2023/04/04 03:44:05;;;;;;;33.92;30.95;;;2.80;99.90;;;;;;4977658;28;20057;-79
2023/04/04 03:46:31;;;;;;;35.05;31.90;;;3.00;99.90;;;;;;4977463;28;20034;-79
2023/04/04 03:48:56;;;;;;;45.97;42.60;;;3.30;99.90;;;;;;4977462;28;20061;-79
2023/04/04 03:51:23;;;;;;;42.90;39.42;;;3.00;99.90;;;;;;4981625;28;20046;-79
2023/04/04 03:53:49;;;;;;;41.75;37.90;;;3.20;99.90;;;;;;4974148;28;20556;-79
2023/04/04 03:56:14;;;;;;;27.20;24.77;;;2.50;99.90;;;;;;4986650;28;20046;-80
2023/04/04 03:58:40;;;;;;;40.88;37.10;;;3.00;99.90;;;;;;4993879;28;20042;-79
2023/04/04 04:01:05;;;;;;;31.75;29.10;;;2.60;99.90;;;;;;4990226;28;20065;-80
2023/04/04 04:03:31;;;;;;;36.20;33.33;;;4.70;99.90;;;;;;5001228;28;20033;-79
2023/04/04 04:05:58;;;;;;;28.52;26.27;;;2.80;99.90;;;;;;4974528;28;20069;-79
2023/04/04 04:08:23;;;;;;;45.20;41.67;;;2.50;99.90;;;;;;4970046;28;20470;-79
2023/04/04 04:10:49;;;;;;;38.78;35.25;;;2.30;99.90;;;;;;4969786;28;20045;-80
2023/04/04 04:13:15;;;;;;;38.65;35.20;;;2.90;99.90;;;;;;4967621;28;20076;-80
2023/04/04 04:15:40;;;;;;;32.05;29.15;;;2.90;99.90;;;;;;4970883;28;20072;-80
2023/04/04 04:18:06;;;;;;;37.03;33.40;;;2.10;99.90;;;;;;4984570;28;20100;-80
2023/04/04 04:20:32;;;;;;;31.98;29.48;;;2.40;99.90;;;;;;4984720;28;20037;-79
2023/04/04 04:22:57;;;;;;;37.55;34.15;;;2.70;99.90;;;;;;4957406;28;20065;-79
2023/04/04 04:25:23;;;;;;;44.53;41.00;;;2.60;99.90;;;;;;4982608;28;20074;-79
2023/04/04 04:27:49;;;;;;;34.45;31.48;;;2.80;99.90;;;;;;4982471;28;20050;-79
2023/04/04 04:30:14;;;;;;;25.42;23.25;;;2.00;99.90;;;;;;4991864;28;20527;-79
2023/04/04 04:32:40;;;;;;;29.38;26.77;;;1.90;99.90;;;;;;4975752;28;20042;-80
2023/04/04 04:35:07;;;;;;;33.30;30.70;;;1.80;99.90;;;;;;4973417;28;20041;-79
2023/04/04 04:37:33;;;;;;;38.25;34.92;;;2.30;99.90;;;;;;4990008;28;20053;-79
2023/04/04 04:40:00;;;;;;;39.47;36.05;;;2.60;99.90;;;;;;4991219;28;20068;-79
2023/04/04 04:42:26;;;;;;;33.55;30.58;;;2.70;99.90;;;;;;4975974;28;20611;-79
2023/04/04 04:44:52;;;;;;;31.58;28.55;;;2.60;99.90;;;;;;4992742;28;20030;-80
2023/04/04 04:47:17;;;;;;;29.38;26.63;;;2.10;99.90;;;;;;4991167;28;20658;-79
2023/04/04 04:49:46;;;;;;;33.10;30.25;;;2.00;99.90;;;;;;4970304;28;20420;-79
2023/04/04 04:52:12;;;;;;;48.30;43.75;;;1.80;99.90;;;;;;4987972;28;20523;-80
2023/04/04 04:54:38;;;;;;;31.83;28.88;;;2.70;99.90;;;;;;4969872;28;20041;-79
2023/04/04 04:57:03;;;;;;;29.95;27.17;;;1.80;99.90;;;;;;4974734;28;20088;-79
2023/04/04 04:59:29;;;;;;;27.70;25.00;;;1.80;99.90;;;;;;4990916;28;20111;-79
2023/04/04 05:01:54;;;;;;;25.35;23.02;;;2.60;99.90;;;;;;4970986;28;20033;-79
2023/04/04 05:04:20;;;;;;;37.05;33.97;;;2.50;99.90;;;;;;4969782;28;20103;-79
2023/04/04 05:06:46;;;;;;;35.58;32.05;;;1.80;99.90;;;;;;4966593;28;20047;-79
2023/04/04 05:09:11;;;;;;;36.25;32.65;;;2.30;99.90;;;;;;4992504;28;20057;-79
2023/04/04 05:11:37;;;;;;;29.80;24.98;;;2.40;99.90;;;;;;4988824;28;20037;-79
2023/04/04 05:14:04;;;;;;;30.73;27.67;;;2.40;99.90;;;;;;4965741;28;20034;-79
2023/04/04 05:16:30;;;;;;;33.30;30.33;;;2.50;99.90;;;;;;4986273;28;20052;-80
2023/04/04 05:18:55;;;;;;;27.48;19.70;;;1.40;99.90;;;;;;4974822;28;20045;-80
2023/04/04 05:21:22;;;;;;;29.60;25.73;;;2.40;99.90;;;;;;4961920;28;20046;-80
2023/04/04 05:23:48;;;;;;;24.52;20.25;;;1.70;99.90;;;;;;4971902;28;20669;-80
2023/04/04 05:26:13;;;;;;;25.50;22.52;;;1.80;99.90;;;;;;4982208;28;20030;-80
2023/04/04 05:28:39;;;;;;;24.50;22.17;;;2.40;99.90;;;;;;4978356;28;20567;-80
2023/04/04 05:31:05;;;;;;;22.92;20.65;;;1.50;99.90;;;;;;4963074;28;20038;-79
2023/04/04 05:33:31;;;;;;;37.78;34.17;;;2.30;99.90;;;;;;4990250;28;20042;-80
2023/04/04 05:35:58;;;;;;;21.85;19.98;;;1.60;99.90;;;;;;4972708;28;20052;-79
2023/04/04 05:38:24;;;;;;;42.90;38.30;;;1.80;99.90;;;;;;4999527;28;20108;-79
2023/04/04 05:40:53;;;;;;;42.42;38.58;;;2.60;99.90;;;;;;5006037;28;20438;-79
2023/04/04 05:43:18;;;;;;;26.50;23.42;;;1.40;99.90;;;;;;4976653;28;20120;-79
2023/04/04 05:45:44;;;;;;;27.00;24.63;;;2.00;99.90;;;;;;4971274;28;20037;-79
2023/04/04 05:48:10;;;;;;;22.10;20.10;;;2.50;99.90;;;;;;4971235;28;20383;-79
2023/04/04 05:50:36;;;;;;;21.42;19.15;;;1.50;99.90;;;;;;4993325;28;20038;-79
2023/04/04 05:53:01;;;;;;;40.70;36.45;;;2.50;99.90;;;;;;4991083;28;20045;-79
2023/04/04 05:55:28;;;;;;;30.40;27.13;;;1.60;99.90;;;;;;4973967;28;20041;-79
2023/04/04 05:57:53;;;;;;;38.95;34.95;;;1.60;99.90;;;;;;4985532;28;20537;-79
2023/04/04 06:00:19;;;;;;;35.33;32.15;;;1.50;99.90;;;;;;4986180;28;20166;-79
2023/04/04 06:02:45;;;;;;;28.33;25.70;;;2.50;99.90;;;;;;4990876;28;20040;-79
2023/04/04 06:05:11;;;;;;;26.42;24.15;;;1.60;99.90;;;;;;4971761;28;20465;-79
2023/04/04 06:07:36;;;;;;;27.17;23.13;;;2.30;99.90;;;;;;4992850;28;20125;-79
2023/04/04 06:10:06;;;;;;;38.45;34.88;;;2.70;99.90;;;;;;4987174;28;20046;-79
2023/04/04 06:12:32;;;;;;;31.10;28.15;;;2.80;99.90;;;;;;4965847;28;20046;-79
2023/04/04 06:14:57;;;;;;;25.90;23.50;;;2.00;99.90;;;;;;4968268;28;20042;-79
2023/04/04 06:17:23;;;;;;;25.08;22.83;;;2.60;99.90;;;;;;4985193;28;20050;-79
2023/04/04 06:19:49;;;;;;;39.63;35.97;;;4.30;99.90;;;;;;4975150;28;20057;-80
2023/04/04 06:22:16;;;;;;;34.22;28.20;;;2.10;99.90;;;;;;4975809;28;20037;-80
2023/04/04 06:24:42;;;;;;;35.10;31.73;;;1.60;99.90;;;;;;4987814;28;20043;-81
2023/04/04 06:27:08;;;;;;;24.85;22.50;;;2.40;99.90;;;;;;4986939;28;20037;-79
2023/04/04 06:29:33;;;;;;;27.02;24.52;;;2.40;99.90;;;;;;4966817;28;20158;-79
2023/04/04 06:31:59;;;;;;;29.08;21.35;;;2.80;99.90;;;;;;4992555;28;20061;-79
2023/04/04 06:34:25;;;;;;;24.67;22.15;;;3.00;99.90;;;;;;4992990;28;20037;-79
2023/04/04 06:36:51;;;;;;;32.90;29.85;;;3.00;99.90;;;;;;4975833;28;20386;-80
2023/04/04 06:39:16;;;;;;;35.13;31.83;;;3.20;99.90;;;;;;4988287;28;20085;-79
2023/04/04 06:41:42;;;;;;;31.42;28.55;;;2.50;99.90;;;;;;5006579;28;20069;-79
2023/04/04 06:44:07;;;;;;;28.30;25.60;;;3.40;99.90;;;;;;4993065;28;20042;-79
2023/04/04 06:46:35;;;;;;;36.50;32.67;;;2.40;99.90;;;;;;4961171;28;20088;-79
2023/04/04 06:49:01;;;;;;;40.58;36.75;;;3.10;99.90;;;;;;4986620;28;20121;-79
2023/04/04 06:51:27;;;;;;;34.85;31.60;;;2.70;99.90;;;;;;4974863;28;20125;-79
2023/04/04 06:53:55;;;;;;;45.35;40.53;;;3.60;99.90;;;;;;4980162;28;20049;-79
2023/04/04 06:56:21;;;;;;;36.22;33.28;;;3.30;99.90;;;;;;4994406;28;20054;-80
2023/04/04 06:58:47;;;;;;;42.17;38.83;;;3.30;99.90;;;;;;4976840;28;20034;-79
2023/04/04 07:01:13;;;;;;;36.45;33.45;;;4.00;99.90;;;;;;4985495;28;20045;-79
2023/04/04 07:03:38;;;;;;;49.90;45.17;;;3.70;99.90;;;;;;4985694;28;20093;-80
2023/04/04 07:06:04;;;;;;;42.50;39.17;;;3.90;99.90;;;;;;4983077;28;20042;-80
2023/04/04 07:08:32;;;;;;;40.85;37.33;;;4.20;99.90;;;;;;4992541;28;20039;-80
2023/04/04 07:10:58;;;;;;;39.63;36.38;;;3.40;99.90;;;;;;4980698;28;20038;-80
2023/04/04 07:13:24;;;;;;;55.78;51.38;;;3.60;99.90;;;;;;4993444;28;20617;-80
2023/04/04 07:15:50;;;;;;;43.03;39.08;;;4.30;99.90;;;;;;4990532;28;20042;-80
2023/04/04 07:18:16;;;;;;;31.90;29.23;;;4.00;99.90;;;;;;4958631;28;20371;-79
2023/04/04 07:20:44;;;;;;;44.65;41.05;;;3.90;99.90;;;;;;4985395;28;20072;-79
2023/04/04 07:23:10;;;;;;;39.80;36.38;;;3.90;99.90;;;;;;4974797;28;20039;-80
2023/04/04 07:25:37;;;;;;;49.63;45.55;;;4.10;99.90;;;;;;4990821;28;20387;-80
2023/04/04 07:28:03;;;;;;;35.67;32.55;;;4.30;99.90;;;;;;4975046;28;20073;-80
2023/04/04 07:30:31;;;;;;;57.22;52.88;;;4.50;99.90;;;;;;4986698;28;20078;-80
2023/04/04 07:32:58;;;;;;;43.63;39.75;;;5.00;99.90;;;;;;4994384;28;20042;-80
2023/04/04 07:35:23;;;;;;;55.45;51.30;;;5.20;99.90;;;;;;4986570;28;20042;-81
2023/04/04 07:37:49;;;;;;;45.50;41.22;;;6.00;99.90;;;;;;4991130;28;20469;-80
2023/04/04 07:40:15;;;;;;;41.88;38.72;;;6.40;99.90;;;;;;4988756;28;20066;-80
2023/04/04 07:42:44;;;;;;;49.28;45.40;;;5.60;99.90;;;;;;4965190;28;20482;-80
2023/04/04 07:45:10;;;;;;;47.80;44.17;;;5.90;99.90;;;;;;4982722;28;20528;-80
2023/04/04 07:47:36;;;;;;;45.03;41.08;;;6.40;99.90;;;;;;4977188;28;20046;-80
2023/04/04 07:50:02;;;;;;;46.78;43.38;;;6.10;99.90;;;;;;4963582;28;20173;-80
2023/04/04 07:52:28;;;;;;;44.30;41.03;;;5.80;99.90;;;;;;4989155;28;20386;-80
2023/04/04 07:54:54;;;;;;;41.97;38.53;;;7.80;99.90;;;;;;4984965;28;20065;-80
2023/04/04 07:57:20;;;;;;;30.85;28.17;;;6.60;99.90;;;;;;4962605;28;20512;-81
2023/04/04 07:59:46;;;;;;;31.00;28.13;;;6.90;99.90;;;;;;4983464;28;20056;-80
2023/04/04 08:02:11;;;;;;;28.27;25.90;;;8.80;99.90;;;;;;4990159;28;20041;-81
2023/04/04 08:04:37;;;;;;;24.17;21.80;;;8.10;99.90;;;;;;4975196;28;20041;-80
2023/04/04 08:07:02;;;;;;;25.52;23.05;;;7.90;99.90;;;;;;4970077;28;20065;-80
2023/04/04 08:09:33;;;;;;;22.98;20.27;;;8.40;99.90;;;;;;4989247;28;20425;-80
2023/04/04 08:12:00;;;;;;;17.90;16.00;;;8.60;99.90;;;;;;4965989;28;20050;-81
2023/04/04 08:14:26;;;;;;;16.35;12.57;;;8.90;99.90;;;;;;4958245;28;20129;-80
2023/04/04 08:16:52;;;;;;;13.95;9.52;;;9.50;99.90;;;;;;4973326;28;20128;-80
2023/04/04 08:19:18;;;;;;;10.25;6.78;;;9.80;99.90;;;;;;4961700;28;20045;-81
2023/04/04 08:21:44;;;;;;;8.13;4.97;;;10.20;99.90;;;;;;4964454;28;20034;-81
2023/04/04 08:24:10;;;;;;;10.52;5.55;;;10.60;99.90;;;;;;4994941;28;20038;-80
2023/04/04 08:26:36;;;;;;;9.23;6.07;;;10.50;99.90;;;;;;4980972;28;20097;-79
2023/04/04 08:29:01;;;;;;;10.45;5.72;;;10.50;99.90;;;;;;4984107;28;20038;-80
2023/04/04 08:31:28;;;;;;;9.57;5.35;;;10.70;27.60;;;;;;4957318;28;20042;-80
2023/04/04 08:33:54;;;;;;;9.13;5.97;;;12.00;99.90;;;;;;4971450;28;20034;-79
2023/04/04 08:36:20;;;;;;;10.07;5.70;;;11.20;1.00;;;;;;4959364;28;20049;-79
2023/04/04 08:38:45;;;;;;;10.02;6.32;;;11.60;99.90;;;;;;4977297;28;20054;-80
2023/04/04 08:41:12;;;;;;;7.05;4.85;;;11.80;99.90;;;;;;4970528;28;20049;-80
2023/04/04 08:43:40;;;;;;;10.43;5.53;;;12.00;1.00;;;;;;4986002;28;20512;-79
2023/04/04 08:46:08;;;;;;;8.05;5.20;;;12.20;32.90;;;;;;4983148;28;20061;-79
2023/04/04 08:48:35;;;;;;;8.52;4.55;;;12.20;99.90;;;;;;4988073;28;20049;-79
2023/04/04 08:51:03;;;;;;;14.02;5.05;;;13.00;57.90;;;;;;5006633;28;20111;-79
2023/04/04 08:53:29;;;;;;;9.40;4.85;;;12.50;1.00;;;;;;4997288;28;20053;-79
2023/04/04 08:55:59;;;;;;;16.20;5.47;;;12.30;99.90;;;;;;4979123;28;20046;-80
2023/04/04 08:58:25;;;;;;;8.52;5.22;;;12.60;99.90;;;;;;5002447;28;20506;-80
2023/04/04 09:00:54;;;;;;;8.25;5.50;;;14.20;99.90;;;;;;4990882;28;20478;-80
2023/04/04 09:03:26;;;;;;;9.70;5.00;;;13.20;3.60;;;;;;4967475;28;20429;-81
2023/04/04 09:05:54;;;;;;;9.00;5.00;;;13.90;99.90;;;;;;4968047;28;20038;-81
2023/04/04 09:08:20;;;;;;;9.95;4.60;;;12.90;99.90;;;;;;4990840;28;20050;-81
2023/04/04 09:10:48;;;;;;;7.85;4.88;;;13.00;99.90;;;;;;4966543;28;20128;-81
2023/04/04 09:13:14;;;;;;;7.60;3.92;;;13.00;99.90;;;;;;4969262;28;20061;-81
2023/04/04 09:15:45;;;;;;;11.52;4.97;;;12.70;62.60;;;;;;4977050;28;20524;-81
2023/04/04 09:18:10;;;;;;;7.72;4.68;;;12.60;22.60;;;;;;4984882;28;20564;-79
2023/04/04 09:20:49;;;;;;;9.70;4.55;;;12.80;8.30;;;;;;4979443;28;20042;-79
2023/04/04 09:23:20;;;;;;;8.70;5.13;;;13.10;1.00;;;;;;4981662;28;20522;-79
2023/04/04 09:25:49;;;;;;;8.93;5.07;;;13.80;1.00;;;;;;4960786;28;20399;-80
2023/04/04 09:28:16;;;;;;;12.90;5.03;;;13.10;1.00;;;;;;4977242;28;20049;-81
2023/04/04 09:30:43;;;;;;;9.98;5.03;;;13.10;1.00;;;;;;4993166;28;20074;-80
2023/04/04 09:33:11;;;;;;;7.40;4.80;;;13.30;1.00;;;;;;4994075;28;20099;-81
2023/04/04 09:35:40;;;;;;;8.48;5.43;;;13.30;1.00;;;;;;4982326;28;20121;-80
2023/04/04 09:38:06;;;;;;;9.07;5.30;;;13.20;1.00;;;;;;4994422;28;20122;-80
2023/04/04 09:40:34;;;;;;;8.50;5.32;;;13.10;1.00;;;;;;4990843;28;20042;-79
2023/04/04 09:43:01;;;;;;;9.98;5.47;;;13.00;1.00;;;;;;4995253;28;20056;-80
2023/04/04 09:45:29;;;;;;;11.30;6.05;;;12.80;1.00;;;;;;4962016;28;20034;-79
2023/04/04 09:47:55;;;;;;;7.95;6.68;;;12.70;1.00;;;;;;4985175;28;20117;-80
2023/04/04 09:50:23;;;;;;;7.78;5.75;;;13.30;1.00;;;;;;4983145;28;20128;-80
2023/04/04 09:52:50;;;;;;;12.98;9.82;;;11.50;1.00;;;;;;4995440;28;20076;-80
2023/04/04 09:55:17;;;;;;;13.85;12.55;;;11.10;1.00;;;;;;4994550;28;20244;-79
2023/04/04 09:57:45;;;;;;;14.75;13.32;;;10.70;1.00;;;;;;4996087;28;20048;-79
2023/04/04 10:00:11;;;;;;;13.90;12.50;;;10.30;1.00;;;;;;4992278;28;20041;-80
2023/04/04 10:02:46;;;;;;;10.98;9.18;;;10.30;1.00;;;;;;5008513;28;20046;-80
2023/04/04 10:05:13;;;;;;;11.38;8.38;;;11.60;1.00;;;;;;4972548;28;20038;-79
2023/04/04 10:07:39;;;;;;;22.67;20.30;;;10.20;1.00;;;;;;4994529;28;20042;-79
2023/04/04 10:10:06;;;;;;;12.25;9.95;;;9.90;1.00;;;;;;4974518;28;20041;-79
2023/04/04 10:12:34;;;;;;;10.93;8.52;;;9.60;1.00;;;;;;4995487;28;20038;-79
2023/04/04 10:15:01;;;;;;;14.85;13.00;;;9.30;1.00;;;;;;4980654;28;20120;-79
2023/04/04 10:17:35;;;;;;;24.55;18.25;;;9.20;1.00;;;;;;4979235;28;20521;-79
2023/04/04 10:20:05;;;;;;;18.88;17.10;;;9.20;1.00;;;;;;4974373;28;20042;-79
2023/04/04 10:22:32;;;;;;;12.77;10.05;;;9.40;1.00;;;;;;4974493;28;20170;-80
2023/04/04 10:24:58;;;;;;;14.38;11.45;;;9.50;1.00;;;;;;4974514;28;20042;-79
2023/04/04 10:27:25;;;;;;;19.50;17.83;;;9.60;1.00;;;;;;4995147;28;20046;-79
2023/04/04 10:29:51;;;;;;;17.77;16.00;;;9.70;1.00;;;;;;4981308;28;20125;-79
2023/04/04 10:32:23;;;;;;;16.65;13.85;;;9.80;1.00;;;;;;4962632;28;20161;-79
2023/04/04 10:34:59;;;;;;;13.88;12.48;;;9.80;1.00;;;;;;4982947;28;20100;-80
2023/04/04 10:37:27;;;;;;;14.63;13.15;;;9.70;1.00;;;;;;4991409;28;20115;-79
2023/04/04 10:40:14;;;;;;;21.88;19.88;;;9.60;1.00;;;;;;4976310;28;20532;-83
2023/04/04 10:42:45;;;;;;;22.60;20.75;;;9.50;1.00;;;;;;4981169;28;20073;-80
2023/04/04 10:45:13;;;;;;;37.42;34.00;;;9.30;1.00;;;;;;4983723;28;20038;-79
2023/04/04 10:47:40;;;;;;;57.97;52.92;;;9.40;1.00;;;;;;4986288;28;20038;-80
2023/04/04 10:50:08;;;;;;;21.98;19.88;;;9.50;1.00;;;;;;4984725;28;20050;-79
2023/04/04 10:52:36;;;;;;;47.38;43.47;;;9.40;1.00;;;;;;4973111;28;20521;-80
2023/04/04 10:55:05;;;;;;;36.78;33.63;;;9.40;1.00;;;;;;4990341;28;20046;-79
2023/04/04 10:57:37;;;;;;;25.83;23.52;;;9.30;1.00;;;;;;4988240;28;20042;-79
2023/04/04 11:00:11;;;;;;;29.30;26.83;;;9.40;1.00;;;;;;4979178;28;20049;-79
2023/04/04 11:02:54;;;;;;;32.00;29.02;;;9.40;1.00;;;;;;4981192;28;20038;-79
2023/04/04 11:05:39;;;;;;;21.73;19.75;;;10.40;1.00;;;;;;4964721;28;20069;-79
2023/04/04 11:08:06;;;;;;;16.45;14.70;;;9.50;1.00;;;;;;4986725;28;20528;-80
2023/04/04 11:10:56;;;;;;;37.13;34.08;;;9.80;1.00;;;;;;4989800;28;20502;-80
2023/04/04 11:13:38;;;;;;;35.22;32.13;;;10.00;1.00;;;;;;4985836;28;20133;-80
2023/04/04 11:16:16;;;;;;;39.40;36.13;;;11.10;1.00;;;;;;4992133;28;20121;-80
2023/04/04 11:18:42;;;;;;;40.10;36.83;;;10.40;1.00;;;;;;4979198;28;20034;-80
2023/04/04 11:21:12;;;;;;;26.52;23.80;;;10.10;1.00;;;;;;4988298;28;20046;-80
2023/04/04 11:24:03;;;;;;;37.60;34.47;;;10.00;1.00;;;;;;4989572;28;20477;-80
2023/04/04 11:26:31;;;;;;;15.65;13.82;;;10.00;1.00;;;;;;4980947;28;20085;-80
2023/04/04 11:29:02;;;;;;;15.10;13.15;;;9.90;1.00;;;;;;4974897;28;20042;-80
2023/04/04 11:31:49;;;;;;;28.65;26.15;;;9.80;1.00;;;;;;4968579;28;20048;-80
2023/04/04 11:34:30;;;;;;;13.85;12.45;;;9.80;1.00;;;;;;4980485;28;20592;-80
2023/04/04 11:36:56;;;;;;;24.25;21.75;;;9.80;1.00;;;;;;4986501;28;20038;-81
2023/04/04 11:39:29;;;;;;;19.00;17.00;;;9.80;1.00;;;;;;4992657;28;20069;-81
2023/04/04 11:42:12;;;;;;;14.60;12.38;;;9.80;1.00;;;;;;4984316;28;20096;-81
2023/04/04 11:44:50;;;;;;;20.30;18.25;;;9.80;1.00;;;;;;4981417;28;20038;-80
2023/04/04 11:47:21;;;;;;;34.10;31.15;;;9.70;1.00;;;;;;4965794;28;20038;-81
2023/04/04 11:49:49;;;;;;;35.72;32.65;;;9.60;1.00;;;;;;4993011;28;20042;-80
2023/04/04 11:52:16;;;;;;;15.38;10.13;;;9.50;1.00;;;;;;4975532;28;20612;-80
2023/04/04 11:54:44;;;;;;;17.73;15.80;;;10.10;1.00;;;;;;4984024;28;20494;-80
2023/04/04 11:57:14;;;;;;;26.63;24.17;;;9.50;1.00;;;;;;4990870;28;20155;-80
2023/04/04 11:59:41;;;;;;;32.78;30.08;;;9.60;1.00;;;;;;4980745;28;20116;-80
2023/04/04 12:02:11;;;;;;;19.67;17.83;;;9.60;1.00;;;;;;4982046;28;20402;-80
2023/04/04 12:04:46;;;;;;;13.13;11.80;;;9.50;1.00;;;;;;4975925;28;20041;-80
2023/04/04 12:07:12;;;;;;;14.75;13.05;;;9.50;1.00;;;;;;4975611;28;20128;-80
2023/04/04 12:09:39;;;;;;;22.17;19.23;;;9.60;1.00;;;;;;4982667;28;20494;-80
2023/04/04 12:12:06;;;;;;;13.43;8.52;;;11.20;1.00;;;;;;4978522;28;20502;-80
2023/04/04 12:14:32;;;;;;;25.40;23.05;;;9.90;1.00;;;;;;4988742;28;20405;-80
2023/04/04 12:17:01;;;;;;;19.23;17.50;;;10.00;1.00;;;;;;4973690;28;20037;-80
2023/04/04 12:19:27;;;;;;;20.20;17.80;;;10.10;1.00;;;;;;4987189;28;20402;-80
2023/04/04 12:21:53;;;;;;;32.95;29.95;;;10.10;1.00;;;;;;4990990;28;20134;-80
2023/04/04 12:24:19;;;;;;;22.95;20.77;;;10.10;1.00;;;;;;4985215;28;20522;-80
2023/04/04 12:26:48;;;;;;;12.10;10.63;;;10.00;1.00;;;;;;4986061;28;20536;-80
2023/04/04 12:29:15;;;;;;;9.80;7.70;;;10.00;1.00;;;;;;4984487;28;20042;-80
2023/04/04 12:31:44;;;;;;;16.02;14.45;;;10.50;1.00;;;;;;4968452;28;20497;-80
2023/04/04 12:34:46;;;;;;;19.73;17.83;;;9.90;1.00;;;;;;4989884;28;20160;-80
2023/04/04 12:37:15;;;;;;;12.85;11.55;;;9.90;1.00;;;;;;4939676;28;20137;-80
2023/04/04 12:39:49;;;;;;;14.75;10.60;;;9.90;1.00;;;;;;4971894;28;20147;-80
2023/04/04 12:42:23;;;;;;;26.45;23.15;;;9.90;1.00;;;;;;4992861;28;20038;-80